createdAt,value
2023-02-04T00:01:43.169Z,98474.09
2023-02-04T00:06:44.937Z,98523.38
2023-02-04T00:11:46.808Z,98563.88
2023-02-04T00:16:48.577Z,98559.84
2023-02-04T00:21:50.437Z,98589.09
2023-02-04T00:26:52.261Z,98601.53
2023-02-04T00:31:54.131Z,98602.59
2023-02-04T00:36:56.111Z,98645.88
2023-02-04T00:41:57.905Z,98653.47
2023-02-04T00:46:59.714Z,98667.31
2023-02-04T00:52:02.043Z,98698.84
2023-02-04T00:57:03.959Z,98719.16
2023-02-04T01:02:05.776Z,98749.94
2023-02-04T01:07:07.813Z,98762.06
2023-02-04T01:12:10.074Z,98775.81
2023-02-04T01:17:11.899Z,98802.78
2023-02-04T01:22:14.042Z,98802.91
2023-02-04T01:27:15.957Z,98824.00
2023-02-04T01:32:17.778Z,98826.59
2023-02-04T01:37:19.713Z,98843.19
2023-02-04T01:42:21.972Z,98854.03
2023-02-04T01:47:25.674Z,98859.00
2023-02-04T01:52:31.409Z,98874.13
2023-02-04T01:57:34.574Z,98887.22
2023-02-04T02:02:43.904Z,98912.69
2023-02-04T02:07:45.888Z,98941.69
2023-02-04T02:12:48.747Z,98944.47
2023-02-04T02:17:51.891Z,98961.25
2023-02-04T02:22:56.444Z,98976.28
2023-02-04T02:27:59.777Z,99000.91
2023-02-04T02:33:01.854Z,99009.56
2023-02-04T02:38:03.716Z,99023.22
2023-02-04T02:43:06.946Z,99051.28
2023-02-04T02:48:11.094Z,99052.88
2023-02-04T02:53:15.415Z,99064.19
2023-02-04T02:58:29.679Z,99082.25
2023-02-04T03:03:38.081Z,99075.66
2023-02-04T03:08:41.525Z,99107.41
2023-02-04T03:13:43.606Z,99128.44
2023-02-04T03:18:45.547Z,99141.91
2023-02-04T03:23:47.648Z,99154.81
2023-02-04T03:28:49.681Z,99176.50
2023-02-04T03:33:51.825Z,99184.22
2023-02-04T03:38:54.388Z,99201.34
2023-02-04T03:43:56.455Z,99208.94
2023-02-04T03:48:58.309Z,99239.03
2023-02-04T03:54:00.116Z,99239.88
2023-02-04T03:59:01.994Z,99271.13
2023-02-04T04:04:03.862Z,99302.56
2023-02-04T04:09:05.783Z,99323.50
2023-02-04T04:14:07.635Z,99337.19
2023-02-04T04:19:09.633Z,99354.16
2023-02-04T04:24:11.453Z,99371.31
2023-02-04T04:29:13.254Z,99385.25
2023-02-04T04:34:15.080Z,99389.06
2023-02-04T04:39:16.938Z,99405.94
2023-02-04T04:44:18.931Z,99424.44
2023-02-04T04:49:20.815Z,99433.50
2023-02-04T04:54:22.664Z,99447.97
2023-02-04T04:59:24.454Z,99457.63
2023-02-04T05:04:26.336Z,99471.56
2023-02-04T05:09:28.196Z,99478.56
2023-02-04T05:14:30.107Z,99482.31
2023-02-04T05:19:31.895Z,99488.19
2023-02-04T05:24:33.706Z,99485.63
2023-02-04T05:29:35.505Z,99502.78
2023-02-04T05:34:39.145Z,99524.81
2023-02-04T05:39:43.481Z,99530.97
2023-02-04T05:44:45.294Z,99536.59
2023-02-04T05:49:47.150Z,99554.88
2023-02-04T05:54:48.955Z,99566.13
2023-02-04T05:59:50.778Z,99581.16
2023-02-04T06:04:52.579Z,99593.75
2023-02-04T06:09:54.373Z,99608.50
2023-02-04T06:14:56.374Z,99614.94
2023-02-04T06:19:58.183Z,99637.97
2023-02-04T06:25:00.012Z,99650.84
2023-02-04T06:30:02.078Z,99664.75
2023-02-04T06:35:04.080Z,99663.41
2023-02-04T06:40:06.766Z,99685.69
2023-02-04T06:45:08.764Z,99698.25
2023-02-04T06:50:10.910Z,99706.84
2023-02-04T06:55:17.346Z,99717.00
2023-02-04T07:00:19.506Z,99738.69
2023-02-04T07:05:21.359Z,99739.22
2023-02-04T07:10:23.173Z,99758.50
2023-02-04T07:15:25.082Z,99763.34
2023-02-04T07:20:26.904Z,99773.53
2023-02-04T07:25:28.978Z,99762.31
2023-02-04T07:30:31.063Z,99769.81
2023-02-04T07:35:33.163Z,99768.78
2023-02-04T07:40:35.172Z,99767.22
2023-02-04T07:45:37.157Z,99790.25
2023-02-04T07:50:39.018Z,99795.63
2023-02-04T07:55:40.813Z,99809.03
2023-02-04T08:00:42.656Z,99822.38
2023-02-04T08:05:44.488Z,99833.88
2023-02-04T08:10:46.775Z,99847.03
2023-02-04T08:15:48.678Z,99850.25
2023-02-04T08:20:50.701Z,99857.53
2023-02-04T08:25:52.504Z,99862.06
2023-02-04T08:30:54.371Z,99879.25
2023-02-04T08:35:56.278Z,99886.22
2023-02-04T08:40:58.144Z,99888.41
2023-02-04T08:46:00.058Z,99898.59
2023-02-04T08:51:01.943Z,99911.97
2023-02-04T08:56:03.988Z,99925.59
2023-02-04T09:01:07.328Z,99937.66
2023-02-04T09:06:10.065Z,99936.63
2023-02-04T09:11:12.475Z,99940.09
2023-02-04T09:16:14.517Z,99944.09
2023-02-04T09:21:16.353Z,99943.59
2023-02-04T09:26:18.257Z,99948.69
2023-02-04T09:31:20.193Z,99956.78
2023-02-04T09:36:22.081Z,99970.22
2023-02-04T09:41:23.931Z,99979.63
2023-02-04T09:46:31.360Z,99976.97
2023-02-04T09:51:35.626Z,99990.44
2023-02-04T09:56:37.686Z,100003.31
2023-02-04T10:01:40.261Z,100013.00
2023-02-04T10:06:44.164Z,100012.50
2023-02-04T10:11:48.378Z,100019.22
2023-02-04T10:16:58.631Z,100013.84
2023-02-04T10:22:03.189Z,100019.50
2023-02-04T10:27:10.015Z,100018.44
2023-02-04T10:32:33.261Z,100028.13
2023-02-04T10:37:35.148Z,100029.19
2023-02-04T10:42:37.007Z,100030.81
2023-02-04T10:47:38.819Z,100025.41
2023-02-04T10:52:43.735Z,100032.41
2023-02-04T10:57:48.203Z,100027.31
2023-02-04T11:03:05.038Z,100029.72
2023-02-04T11:08:26.608Z,100029.19
2023-02-04T11:13:58.173Z,100032.41
2023-02-04T11:19:06.876Z,100031.88
2023-02-04T11:24:11.489Z,100041.53
2023-02-04T11:29:16.406Z,100045.84
2023-02-04T11:34:21.803Z,100058.47
2023-02-04T11:39:29.240Z,100049.06
2023-02-04T11:44:32.228Z,100052.84
2023-02-04T11:49:36.521Z,100052.56
2023-02-04T11:54:38.464Z,100053.63
2023-02-04T11:59:40.288Z,100062.50
2023-02-04T12:04:53.578Z,100060.88
2023-02-04T12:09:56.862Z,100060.84
2023-02-04T12:15:09.532Z,100064.88
2023-02-04T12:20:13.836Z,100065.19
2023-02-04T12:25:17.218Z,100068.34
2023-02-04T12:30:20.710Z,100077.50
2023-02-04T12:35:23.064Z,100077.78
2023-02-04T12:40:26.590Z,100086.94
2023-02-04T12:45:29.131Z,100088.81
2023-02-04T12:50:31.575Z,100089.34
2023-02-04T12:55:34.144Z,100082.31
2023-02-04T13:00:36.176Z,100078.84
2023-02-04T13:05:38.139Z,100079.53
2023-02-04T13:10:39.965Z,100088.53
2023-02-04T13:15:42.481Z,100093.16
2023-02-04T13:20:46.373Z,100090.50
2023-02-04T13:25:48.463Z,100101.38
2023-02-04T13:30:50.348Z,100089.19
2023-02-04T13:35:52.230Z,100090.13
2023-02-04T13:40:54.686Z,100096.31
2023-02-04T13:45:58.173Z,100110.84
2023-02-04T13:51:00.680Z,100113.22
2023-02-04T13:56:02.576Z,100112.44
2023-02-04T14:01:04.671Z,100099.19
2023-02-04T14:06:06.919Z,100096.53
2023-02-04T14:11:11.126Z,100082.97
2023-02-04T14:16:12.972Z,100087.19
2023-02-04T14:21:14.894Z,100084.50
2023-02-04T14:26:16.907Z,100100.00
2023-02-04T14:31:19.631Z,100105.53
2023-02-04T14:36:22.376Z,100108.75
2023-02-04T14:41:26.431Z,100102.78
2023-02-04T14:46:28.334Z,100119.47
2023-02-04T14:51:30.203Z,100113.75
2023-02-04T14:56:32.020Z,100113.72
2023-02-04T15:01:34.184Z,100116.69
2023-02-04T15:06:36.226Z,100108.94
2023-02-04T15:11:39.165Z,100104.25
2023-02-04T15:16:43.402Z,100114.19
2023-02-04T15:21:46.116Z,100103.28
2023-02-04T15:26:48.475Z,100103.41
2023-02-04T15:31:50.363Z,100102.09
2023-02-04T15:36:52.274Z,100103.50
2023-02-04T15:41:54.085Z,100113.78
2023-02-04T15:46:55.906Z,100113.53
2023-02-04T15:51:57.969Z,100118.97
2023-02-04T15:56:59.844Z,100132.38
2023-02-04T16:02:01.675Z,100132.38
2023-02-04T16:07:08.328Z,100143.69
2023-02-04T16:12:10.224Z,100153.63
2023-02-04T16:17:12.032Z,100159.81
2023-02-04T16:22:14.124Z,100159.25
2023-02-04T16:27:17.329Z,100158.72
2023-02-04T16:32:19.640Z,100164.06
2023-02-04T16:37:21.547Z,100168.88
2023-02-04T16:42:23.368Z,100178.03
2023-02-04T16:47:25.474Z,100188.19
2023-02-04T16:52:29.031Z,100184.84
2023-02-04T16:57:30.846Z,100190.56
2023-02-04T17:02:37.301Z,100193.78
2023-02-04T17:07:39.336Z,100191.34
2023-02-04T17:12:41.150Z,100192.94
2023-02-04T17:17:42.957Z,100195.09
2023-02-04T17:22:44.753Z,100200.97
2023-02-04T17:27:46.668Z,100208.47
2023-02-04T17:32:48.771Z,100209.00
2023-02-04T17:37:51.149Z,100206.84
2023-02-04T17:42:53.277Z,100214.88
2023-02-04T17:47:55.138Z,100214.34
2023-02-04T17:52:57.609Z,100212.72
2023-02-04T17:58:12.660Z,100208.41
2023-02-04T18:03:18.348Z,100209.47
2023-02-04T18:08:35.319Z,100206.75
2023-02-04T18:13:37.134Z,100208.06
2023-02-04T18:18:40.795Z,100219.88
2023-02-04T18:23:44.421Z,100212.88
2023-02-04T18:28:48.147Z,100224.41
2023-02-04T18:33:50.265Z,100210.47
2023-02-04T18:38:52.149Z,100217.41
2023-02-04T18:44:02.519Z,100209.88
2023-02-04T18:49:23.383Z,100211.44
2023-02-04T18:54:39.048Z,100214.66
2023-02-04T18:59:41.944Z,100218.41
2023-02-04T19:04:44.971Z,100203.63
2023-02-04T19:09:46.786Z,100212.97
2023-02-04T19:14:49.165Z,100209.44
2023-02-04T19:20:01.137Z,100219.06
2023-02-04T19:25:32.779Z,100221.19
2023-02-04T19:31:01.976Z,100232.13
2023-02-04T19:36:19.380Z,100235.06
2023-02-04T19:41:38.188Z,100242.84
2023-02-04T19:46:43.701Z,100243.41
2023-02-04T19:51:48.601Z,100244.78
2023-02-04T19:56:51.488Z,100255.50
2023-02-04T20:02:27.773Z,100241.78
2023-02-04T20:07:29.828Z,100252.25
2023-02-04T20:12:33.022Z,100246.09
2023-02-04T20:17:37.420Z,100253.09
2023-02-04T20:22:47.545Z,100267.25
2023-02-04T20:27:57.255Z,100275.56
2023-02-04T20:33:21.082Z,100287.28
2023-02-04T20:38:22.884Z,100306.00
2023-02-04T20:43:24.757Z,100299.47
2023-02-04T20:48:32.666Z,100311.69
2023-02-04T20:53:42.253Z,100314.25
2023-02-04T20:58:45.727Z,100319.28
2023-02-04T21:03:47.850Z,100325.38
2023-02-04T21:08:51.978Z,100336.59
2023-02-04T21:13:54.875Z,100337.09
2023-02-04T21:18:56.691Z,100354.16
2023-02-04T21:23:58.554Z,100350.28
2023-02-04T21:29:00.535Z,100355.25
2023-02-04T21:34:02.475Z,100358.75
2023-02-04T21:39:04.385Z,100360.13
2023-02-04T21:44:06.189Z,100353.41
2023-02-04T21:49:08.025Z,100360.84
2023-02-04T21:54:09.805Z,100368.31
2023-02-04T21:59:12.110Z,100354.69
2023-02-04T22:04:14.639Z,100344.97
2023-02-04T22:09:18.163Z,100343.00
2023-02-04T22:14:20.012Z,100353.41
2023-02-04T22:19:22.083Z,100364.38
2023-02-04T22:24:24.002Z,100369.16
2023-02-04T22:29:29.954Z,100372.41
2023-02-04T22:34:31.767Z,100370.19
2023-02-04T22:39:33.760Z,100375.47
2023-02-04T22:44:35.613Z,100383.44
2023-02-04T22:49:37.496Z,100378.00
2023-02-04T22:54:40.463Z,100370.13
2023-02-04T22:59:42.329Z,100369.56
2023-02-04T23:04:44.733Z,100375.66
2023-02-04T23:09:46.581Z,100371.38
2023-02-04T23:14:49.638Z,100369.16
2023-02-04T23:19:51.466Z,100373.13
2023-02-04T23:24:53.338Z,100375.50
2023-02-04T23:29:55.119Z,100385.28
2023-02-04T23:34:57.034Z,100394.59
2023-02-04T23:39:58.918Z,100397.88
2023-02-04T23:45:00.761Z,100396.72
2023-02-04T23:50:03.720Z,100390.00
2023-02-04T23:55:06.124Z,100387.56
